Time;durP1;ratioP1;P1;durP2;ratioP2;P2;SDS_P1;SDS_P2;PMS_P1;PMS_P2;Temp;Humidity;BMP_temperature;BMP_pressure;BME280_temperature;BME280_humidity;BME280_pressure;Samples;Min_cycle;Max_cycle;Signal;HPM_P1;HPM_P2
2021/12/12 00:02:20;;;;;;;24.48;10.75;;;;;;;;;;5076822;28;20040;-66
2021/12/12 00:04:48;;;;;;;22.75;11.13;;;;;;;;;;5075639;28;21260;-66
2021/12/12 00:07:20;;;;;;;28.13;11.38;;;;;;;;;;5076225;28;20055;-66
2021/12/12 00:09:48;;;;;;;22.27;11.45;;;;;;;;;;5076142;28;20062;-66
2021/12/12 00:12:16;;;;;;;26.10;11.10;;;;;;;;;;5075585;28;20460;-66
2021/12/12 00:14:43;;;;;;;20.23;10.25;;;;;;;;;;5073528;28;20093;-66
2021/12/12 00:17:10;;;;;;;24.65;10.57;;;;;;;;;;5074077;28;20080;-66
2021/12/12 00:19:37;;;;;;;27.90;11.32;;;;;;;;;;5073448;28;20086;-66
2021/12/12 00:22:06;;;;;;;26.77;10.30;;;;;;;;;;5057080;28;20680;-66
2021/12/12 00:24:32;;;;;;;22.25;10.32;;;;;;;;;;5080016;28;20057;-66
2021/12/12 00:26:59;;;;;;;27.23;10.57;;;;;;;;;;5071840;28;20048;-66
2021/12/12 00:29:26;;;;;;;23.83;9.75;;;;;;;;;;5074408;28;20052;-66
2021/12/12 00:31:56;;;;;;;20.55;9.13;;;;;;;;;;5078531;28;20052;-66
2021/12/12 00:34:23;;;;;;;20.35;8.43;;;;;;;;;;5075610;28;20059;-66
2021/12/12 00:36:49;;;;;;;27.58;9.68;;;;;;;;;;5078264;28;20040;-66
2021/12/12 00:39:18;;;;;;;23.65;9.52;;;;;;;;;;5074709;28;20048;-66
2021/12/12 00:41:49;;;;;;;23.63;8.77;;;;;;;;;;5073993;28;20044;-66
2021/12/12 00:44:16;;;;;;;21.88;8.95;;;;;;;;;;5081681;28;20048;-66
2021/12/12 00:46:42;;;;;;;22.25;8.40;;;;;;;;;;5074224;28;20541;-65
2021/12/12 00:49:11;;;;;;;23.52;8.32;;;;;;;;;;5077728;28;20055;-68
2021/12/12 00:51:39;;;;;;;26.35;9.75;;;;;;;;;;5074781;28;20382;-68
2021/12/12 00:54:06;;;;;;;21.45;8.10;;;;;;;;;;5084888;28;20048;-67
2021/12/12 00:56:32;;;;;;;18.83;7.72;;;;;;;;;;5083851;28;20051;-66
2021/12/12 00:58:58;;;;;;;24.45;8.57;;;;;;;;;;5083917;28;20052;-66
2021/12/12 01:01:30;;;;;;;19.23;8.30;;;;;;;;;;5080093;28;20544;-66
2021/12/12 01:04:05;;;;;;;19.38;8.40;;;;;;;;;;5074210;28;20044;-66
2021/12/12 01:06:32;;;;;;;20.88;8.40;;;;;;;;;;5079895;28;20071;-66
2021/12/12 01:09:00;;;;;;;18.83;8.10;;;;;;;;;;5085329;28;20055;-67
2021/12/12 01:11:32;;;;;;;18.95;7.57;;;;;;;;;;5087688;28;20059;-66
2021/12/12 01:13:58;;;;;;;22.20;7.63;;;;;;;;;;5079196;28;20048;-66
2021/12/12 01:16:27;;;;;;;20.80;6.70;;;;;;;;;;5078036;28;20048;-66
2021/12/12 01:18:53;;;;;;;;;;;;;;;;;;5069236;28;20431;-66
2021/12/12 01:21:22;;;;;;;18.85;7.00;;;;;;;;;;5078070;28;19951;-66
2021/12/12 01:23:53;;;;;;;16.60;6.82;;;;;;;;;;5077264;28;20063;-66
2021/12/12 01:26:20;;;;;;;18.10;7.50;;;;;;;;;;5075468;28;20062;-66
2021/12/12 01:28:49;;;;;;;16.55;6.72;;;;;;;;;;5076548;28;20055;-66
2021/12/12 01:31:23;;;;;;;16.25;6.60;;;;;;;;;;5077086;28;20052;-66
2021/12/12 01:33:58;;;;;;;14.80;6.40;;;;;;;;;;5076057;28;20051;-66
2021/12/12 01:36:40;;;;;;;24.58;7.00;;;;;;;;;;5075855;28;20055;-66
2021/12/12 01:39:07;;;;;;;17.95;7.03;;;;;;;;;;5078500;28;20063;-66
2021/12/12 01:41:50;;;;;;;22.13;6.85;;;;;;;;;;5077294;28;20657;-66
2021/12/12 01:44:19;;;;;;;18.10;6.57;;;;;;;;;;5078849;28;20052;-66
2021/12/12 01:46:45;;;;;;;;;;;;;;;;;;5078802;28;20054;-66
2021/12/12 01:49:17;;;;;;;16.98;7.50;;;;;;;;;;5077270;28;19928;-66
2021/12/12 01:51:44;;;;;;;22.17;7.13;;;;;;;;;;5077926;28;20540;-66
2021/12/12 01:54:12;;;;;;;19.63;5.82;;;;;;;;;;5077632;28;20128;-66
2021/12/12 01:56:42;;;;;;;21.02;7.75;;;;;;;;;;5075966;28;20059;-66
2021/12/12 01:59:10;;;;;;;20.17;7.28;;;;;;;;;;5075692;28;20048;-66
2021/12/12 02:01:48;;;;;;;20.48;7.75;;;;;;;;;;5075137;28;20091;-66
2021/12/12 02:04:17;;;;;;;19.23;7.60;;;;;;;;;;5075183;28;20090;-66
2021/12/12 02:06:46;;;;;;;21.15;7.88;;;;;;;;;;5076469;28;20084;-66
2021/12/12 02:09:12;;;;;;;;;;;;;;;;;;5076686;28;20398;-68
2021/12/12 02:11:39;;;;;;;20.48;7.55;;;;;;;;;;5073945;28;19928;-68
2021/12/12 02:14:11;;;;;;;21.65;7.43;;;;;;;;;;5074735;28;20060;-67
2021/12/12 02:16:39;;;;;;;24.33;8.15;;;;;;;;;;5074698;28;20055;-68
2021/12/12 02:19:06;;;;;;;27.58;7.78;;;;;;;;;;5074844;28;20059;-68
2021/12/12 02:21:52;;;;;;;25.23;7.30;;;;;;;;;;5075235;28;20071;-67
2021/12/12 02:35:31;;;;;;;19.70;7.28;;;;;;;;;;5074780;28;20079;-68
2021/12/12 02:37:58;;;;;;;19.02;6.97;;;;;;;;;;5075374;28;21285;-68
2021/12/12 02:40:36;;;;;;;23.98;6.47;;;;;;;;;;5075714;28;20039;-68
2021/12/12 02:43:03;;;;;;;17.63;6.82;;;;;;;;;;5076275;28;20048;-69
2021/12/12 02:45:32;;;;;;;17.67;6.55;;;;;;;;;;5075337;28;20047;-69
2021/12/12 02:48:02;;;;;;;;;;;;;;;;;;5074448;28;20481;-69
2021/12/12 02:50:37;;;;;;;15.57;6.38;;;;;;;;;;5074449;28;19924;-69
2021/12/12 02:53:08;;;;;;;21.23;7.00;;;;;;;;;;5075220;28;20058;-69
2021/12/12 02:55:38;;;;;;;21.08;7.03;;;;;;;;;;5074581;28;20044;-68
2021/12/12 02:58:06;;;;;;;17.60;6.95;;;;;;;;;;5023360;28;1436326;-68
2021/12/12 03:00:34;;;;;;;22.88;6.57;;;;;;;;;;5073997;28;20076;-68
2021/12/12 03:03:01;;;;;;;;;;;;;;;;;;5075866;28;20048;-69
2021/12/12 03:05:29;;;;;;;20.65;6.07;;;;;;;;;;5073402;28;19950;-68
2021/12/12 03:07:55;;;;;;;18.50;6.88;;;;;;;;;;5073641;28;20048;-66
2021/12/12 03:10:24;;;;;;;20.92;6.90;;;;;;;;;;5074678;28;20098;-67
2021/12/12 03:12:50;;;;;;;22.15;6.63;;;;;;;;;;5075178;28;20525;-67
2021/12/12 03:15:18;;;;;;;14.48;6.05;;;;;;;;;;5073250;28;20048;-67
2021/12/12 03:17:46;;;;;;;24.20;7.13;;;;;;;;;;5074889;28;20048;-68
2021/12/12 03:20:23;;;;;;;17.73;7.43;;;;;;;;;;5075448;28;20058;-68
2021/12/12 03:22:55;;;;;;;24.85;7.75;;;;;;;;;;5075152;28;20086;-67
2021/12/12 03:25:22;;;;;;;21.55;7.38;;;;;;;;;;5074855;28;20158;-67
2021/12/12 03:27:49;;;;;;;19.27;6.93;;;;;;;;;;5074305;28;20044;-67
2021/12/12 03:30:15;;;;;;;16.00;7.47;;;;;;;;;;5074638;28;20516;-68
2021/12/12 03:32:41;;;;;;;17.75;7.40;;;;;;;;;;5074600;28;21344;-66
2021/12/12 03:35:08;;;;;;;20.73;7.70;;;;;;;;;;5075691;28;20044;-68
2021/12/12 03:37:35;;;;;;;17.95;6.70;;;;;;;;;;5075475;28;20621;-68
2021/12/12 03:40:08;;;;;;;18.02;7.45;;;;;;;;;;5075213;28;20052;-67
2021/12/12 03:42:34;;;;;;;20.75;6.50;;;;;;;;;;5074004;28;20047;-67
2021/12/12 03:45:00;;;;;;;17.77;7.18;;;;;;;;;;5075433;28;20052;-67
2021/12/12 03:47:33;;;;;;;17.77;7.15;;;;;;;;;;5074837;28;20499;-67
2021/12/12 03:50:01;;;;;;;18.65;7.35;;;;;;;;;;5075720;28;20518;-68
2021/12/12 03:52:28;;;;;;;18.83;7.78;;;;;;;;;;5074517;28;20473;-67
2021/12/12 03:54:58;;;;;;;21.15;7.18;;;;;;;;;;5075351;28;20383;-68
2021/12/12 03:57:24;;;;;;;19.52;6.57;;;;;;;;;;5075109;28;20051;-68
2021/12/12 03:59:51;;;;;;;15.75;6.13;;;;;;;;;;5074437;28;20048;-68
2021/12/12 04:02:17;;;;;;;17.58;7.07;;;;;;;;;;5074682;28;20433;-68
2021/12/12 04:04:45;;;;;;;15.27;6.75;;;;;;;;;;5075328;28;20654;-68
2021/12/12 04:07:16;;;;;;;15.73;6.38;;;;;;;;;;5074772;28;20051;-68
2021/12/12 04:09:43;;;;;;;14.27;6.47;;;;;;;;;;5074590;28;20064;-68
2021/12/12 04:12:10;;;;;;;12.57;5.93;;;;;;;;;;5074447;28;20063;-67
2021/12/12 04:14:37;;;;;;;18.70;6.68;;;;;;;;;;5073159;28;20062;-67
2021/12/12 04:17:05;;;;;;;11.98;7.15;;;;;;;;;;5075001;28;20047;-66
2021/12/12 04:19:32;;;;;;;11.65;6.60;;;;;;;;;;5075620;28;20501;-66
2021/12/12 04:21:59;;;;;;;14.13;6.07;;;;;;;;;;5075724;28;20047;-67
2021/12/12 04:24:28;;;;;;;18.80;7.15;;;;;;;;;;5074192;28;20553;-66
2021/12/12 04:26:54;;;;;;;18.08;6.40;;;;;;;;;;5073877;28;20055;-67
2021/12/12 04:29:22;;;;;;;16.88;7.45;;;;;;;;;;5074260;28;20066;-67
2021/12/12 04:31:50;;;;;;;10.93;5.90;;;;;;;;;;5073131;28;20102;-66
2021/12/12 04:34:18;;;;;;;14.33;6.70;;;;;;;;;;5075433;28;20078;-67
2021/12/12 04:36:45;;;;;;;12.40;6.17;;;;;;;;;;5073101;28;20048;-67
2021/12/12 04:39:26;;;;;;;11.57;5.35;;;;;;;;;;5074786;28;20745;-66
2021/12/12 04:41:54;;;;;;;13.68;6.80;;;;;;;;;;5074883;28;20576;-67
2021/12/12 04:44:22;;;;;;;13.57;6.53;;;;;;;;;;5075083;28;20044;-67
2021/12/12 04:49:57;;;;;;;11.40;6.60;;;;;;;;;;5074851;28;20048;-67
2021/12/12 04:52:39;;;;;;;16.08;7.15;;;;;;;;;;5073491;28;20294;-67
2021/12/12 04:55:11;;;;;;;15.82;6.70;;;;;;;;;;5075308;28;20052;-67
2021/12/12 04:57:41;;;;;;;14.00;6.72;;;;;;;;;;5073960;28;20044;-67
2021/12/12 05:00:08;;;;;;;13.57;7.07;;;;;;;;;;5073020;28;20048;-67
2021/12/12 05:02:40;;;;;;;15.07;7.22;;;;;;;;;;5074931;28;20405;-67
2021/12/12 05:05:09;;;;;;;15.95;6.72;;;;;;;;;;5073475;28;20044;-67
2021/12/12 05:07:41;;;;;;;17.23;7.05;;;;;;;;;;5074453;28;20052;-67
2021/12/12 05:10:12;;;;;;;12.90;6.78;;;;;;;;;;5074465;28;20059;-67
2021/12/12 05:12:42;;;;;;;12.40;6.97;;;;;;;;;;5074502;28;20130;-67
2021/12/12 05:15:17;;;;;;;10.07;6.68;;;;;;;;;;5072823;28;20196;-67
2021/12/12 05:17:49;;;;;;;15.82;7.25;;;;;;;;;;5074427;28;20569;-67
2021/12/12 05:20:29;;;;;;;17.48;7.05;;;;;;;;;;5074125;28;20043;-67
2021/12/12 05:22:56;;;;;;;10.43;6.72;;;;;;;;;;5074437;28;20047;-67
2021/12/12 05:25:28;;;;;;;13.80;7.07;;;;;;;;;;5075437;28;20872;-67
2021/12/12 05:27:55;;;;;;;15.90;7.07;;;;;;;;;;5076443;28;20044;-67
2021/12/12 05:30:24;;;;;;;14.93;7.50;;;;;;;;;;5074725;28;20071;-67
2021/12/12 05:32:52;;;;;;;13.18;6.22;;;;;;;;;;5075149;28;20047;-67
2021/12/12 05:35:20;;;;;;;12.18;6.07;;;;;;;;;;5084396;28;20044;-67
2021/12/12 05:37:48;;;;;;;14.00;6.18;;;;;;;;;;5078148;28;20048;-67
2021/12/12 05:40:15;;;;;;;12.15;6.47;;;;;;;;;;5079964;28;20051;-67
2021/12/12 05:42:41;;;;;;;14.27;6.22;;;;;;;;;;5075485;28;20051;-67
2021/12/12 05:45:08;;;;;;;12.20;6.25;;;;;;;;;;5074535;28;20056;-67
2021/12/12 05:47:35;;;;;;;14.45;6.78;;;;;;;;;;5074484;28;21159;-67
2021/12/12 05:50:04;;;;;;;14.60;7.20;;;;;;;;;;5060548;28;20422;-67
2021/12/12 05:52:30;;;;;;;;;;;;;;;;;;5078606;28;20044;-67
2021/12/12 05:54:57;;;;;;;14.20;7.20;;;;;;;;;;5075715;28;20285;-67
2021/12/12 05:57:26;;;;;;;13.00;7.15;;;;;;;;;;5078336;28;20039;-68
2021/12/12 05:59:52;;;;;;;;;;;;;;;;;;5080501;28;20233;-67
2021/12/12 06:02:18;;;;;;;14.82;7.28;;;;;;;;;;5087724;28;19924;-67
2021/12/12 06:04:45;;;;;;;16.77;7.43;;;;;;;;;;5084360;28;20654;-67
2021/12/12 06:07:14;;;;;;;11.32;7.82;;;;;;;;;;5081025;28;20058;-67
2021/12/12 06:09:40;;;;;;;16.17;8.38;;;;;;;;;;5077895;28;20456;-67
2021/12/12 06:12:07;;;;;;;12.65;8.32;;;;;;;;;;5080018;28;20056;-67
2021/12/12 06:14:35;;;;;;;13.93;7.75;;;;;;;;;;5076405;28;20064;-67
2021/12/12 06:17:06;;;;;;;14.80;7.90;;;;;;;;;;5077815;28;20726;-67
2021/12/12 06:19:32;;;;;;;12.55;7.25;;;;;;;;;;5078109;28;20048;-67
2021/12/12 06:22:00;;;;;;;10.55;7.03;;;;;;;;;;5081062;28;20320;-68
2021/12/12 06:24:27;;;;;;;14.73;7.60;;;;;;;;;;5077860;28;20663;-68
2021/12/12 06:26:54;;;;;;;12.25;8.40;;;;;;;;;;5078145;28;20062;-67
2021/12/12 06:29:21;;;;;;;13.25;8.27;;;;;;;;;;5077208;28;20321;-67
2021/12/12 06:31:49;;;;;;;12.15;7.60;;;;;;;;;;5077026;28;20052;-67
2021/12/12 06:34:16;;;;;;;14.65;8.27;;;;;;;;;;5078207;28;20059;-67
2021/12/12 06:36:43;;;;;;;14.88;8.05;;;;;;;;;;5075610;28;20052;-68
2021/12/12 06:39:11;;;;;;;14.63;7.95;;;;;;;;;;5076452;28;20051;-68
2021/12/12 06:41:37;;;;;;;15.65;8.25;;;;;;;;;;5076859;28;20062;-67
2021/12/12 06:44:05;;;;;;;14.60;8.93;;;;;;;;;;5077978;28;20051;-67
2021/12/12 06:46:32;;;;;;;15.93;9.70;;;;;;;;;;5078638;28;20052;-67
2021/12/12 06:48:59;;;;;;;14.32;9.18;;;;;;;;;;5078725;28;20417;-67
2021/12/12 06:51:27;;;;;;;17.17;10.07;;;;;;;;;;5082840;28;20052;-67
2021/12/12 06:53:53;;;;;;;16.70;10.20;;;;;;;;;;5086684;28;20044;-67
2021/12/12 06:56:20;;;;;;;15.18;10.00;;;;;;;;;;5085943;28;20062;-67
2021/12/12 06:58:48;;;;;;;18.58;9.85;;;;;;;;;;5080732;28;20110;-67
2021/12/12 07:01:18;;;;;;;20.98;9.70;;;;;;;;;;5076023;28;20040;-67
2021/12/12 07:03:46;;;;;;;16.83;9.90;;;;;;;;;;5074306;28;20051;-67
2021/12/12 07:06:13;;;;;;;19.02;10.88;;;;;;;;;;5075810;28;20062;-68
2021/12/12 07:08:39;;;;;;;24.77;10.00;;;;;;;;;;5079568;28;20047;-67
2021/12/12 07:11:06;;;;;;;19.35;10.35;;;;;;;;;;5085531;28;20052;-67
2021/12/12 07:13:33;;;;;;;18.55;11.00;;;;;;;;;;5085903;28;20559;-67
2021/12/12 07:16:01;;;;;;;17.58;10.70;;;;;;;;;;5070455;28;20052;-67
2021/12/12 07:18:30;;;;;;;14.73;9.70;;;;;;;;;;5082588;28;20063;-67
2021/12/12 07:20:58;;;;;;;17.75;9.50;;;;;;;;;;5075804;28;20044;-67
2021/12/12 07:23:24;;;;;;;16.67;10.90;;;;;;;;;;5079311;28;20707;-67
2021/12/12 07:25:51;;;;;;;18.33;10.63;;;;;;;;;;5076263;28;20495;-67
2021/12/12 07:28:18;;;;;;;17.67;10.35;;;;;;;;;;5085518;28;20054;-67
2021/12/12 07:30:44;;;;;;;21.90;10.43;;;;;;;;;;5085704;28;20531;-67
2021/12/12 07:33:10;;;;;;;19.10;10.70;;;;;;;;;;5085248;28;20089;-67
2021/12/12 07:35:38;;;;;;;15.63;10.07;;;;;;;;;;5077722;28;20107;-68
2021/12/12 07:38:06;;;;;;;17.17;9.67;;;;;;;;;;5079116;28;20051;-67
2021/12/12 07:40:32;;;;;;;17.70;10.40;;;;;;;;;;5081307;28;20080;-67
2021/12/12 07:42:59;;;;;;;16.17;9.88;;;;;;;;;;5082395;28;20047;-67
2021/12/12 07:45:25;;;;;;;18.48;10.35;;;;;;;;;;5082778;28;20051;-67
2021/12/12 07:47:53;;;;;;;22.15;11.45;;;;;;;;;;5082722;28;20047;-67
2021/12/12 07:50:22;;;;;;;17.25;9.27;;;;;;;;;;5081975;28;20075;-67
2021/12/12 07:52:50;;;;;;;24.70;11.35;;;;;;;;;;5073256;28;20054;-67
2021/12/12 07:55:17;;;;;;;19.98;10.15;;;;;;;;;;5074918;28;20044;-67
2021/12/12 07:57:43;;;;;;;20.05;10.00;;;;;;;;;;5074050;28;20051;-67
2021/12/12 08:00:13;;;;;;;17.45;10.02;;;;;;;;;;5074616;28;20724;-67
2021/12/12 08:02:40;;;;;;;22.98;10.63;;;;;;;;;;5079041;28;20050;-67
2021/12/12 08:05:08;;;;;;;18.05;9.50;;;;;;;;;;5082847;28;20411;-67
2021/12/12 08:07:36;;;;;;;21.60;10.75;;;;;;;;;;5079760;28;20052;-67
2021/12/12 08:10:04;;;;;;;23.05;10.63;;;;;;;;;;5082134;28;20048;-66
2021/12/12 08:12:31;;;;;;;22.98;10.38;;;;;;;;;;5076168;28;20052;-67
2021/12/12 08:14:58;;;;;;;19.27;10.45;;;;;;;;;;5071904;28;20794;-67
2021/12/12 08:17:25;;;;;;;19.55;10.10;;;;;;;;;;5074146;28;20059;-67
2021/12/12 08:19:55;;;;;;;20.15;9.55;;;;;;;;;;5074553;28;20052;-67
2021/12/12 08:22:23;;;;;;;25.33;10.88;;;;;;;;;;5081863;28;20044;-67
2021/12/12 08:24:50;;;;;;;23.83;11.10;;;;;;;;;;5083738;28;20060;-67
2021/12/12 08:27:17;;;;;;;26.67;11.63;;;;;;;;;;5076701;28;20047;-67
2021/12/12 08:29:43;;;;;;;30.52;12.48;;;;;;;;;;5074544;28;20055;-67
2021/12/12 08:32:10;;;;;;;22.55;10.82;;;;;;;;;;5074282;28;20048;-67
2021/12/12 08:34:52;;;;;;;31.15;12.02;;;;;;;;;;5074776;28;20599;-67
2021/12/12 08:37:19;;;;;;;33.72;13.95;;;;;;;;;;5076359;28;20094;-67
2021/12/12 08:39:45;;;;;;;28.63;12.13;;;;;;;;;;5075258;28;20056;-67
2021/12/12 08:42:12;;;;;;;28.55;11.98;;;;;;;;;;5073913;28;20048;-68
2021/12/12 08:44:39;;;;;;;30.33;13.35;;;;;;;;;;5078896;28;20055;-67
2021/12/12 08:47:10;;;;;;;28.45;12.57;;;;;;;;;;5074220;28;20739;-67
2021/12/12 08:49:38;;;;;;;25.27;11.57;;;;;;;;;;5081206;28;20130;-67
2021/12/12 08:52:08;;;;;;;27.48;12.05;;;;;;;;;;5074271;28;20048;-67
2021/12/12 08:54:39;;;;;;;34.35;12.68;;;;;;;;;;5080000;28;20052;-67
2021/12/12 08:57:10;;;;;;;28.17;12.52;;;;;;;;;;5081790;28;20044;-67
2021/12/12 08:59:39;;;;;;;28.65;11.93;;;;;;;;;;5081140;28;20206;-67
2021/12/12 09:02:08;;;;;;;25.83;12.18;;;;;;;;;;5082689;28;20048;-67
2021/12/12 09:04:38;;;;;;;28.27;12.95;;;;;;;;;;5080611;28;20048;-67
2021/12/12 09:07:08;;;;;;;27.63;12.50;;;;;;;;;;5083716;28;20102;-67
2021/12/12 09:09:40;;;;;;;28.73;12.82;;;;;;;;;;5076227;28;20055;-67
2021/12/12 09:12:10;;;;;;;22.85;11.82;;;;;;;;;;5074418;28;20146;-67
2021/12/12 09:14:43;;;;;;;28.52;11.63;;;;;;;;;;5075635;28;20051;-67
2021/12/12 09:17:12;;;;;;;22.25;12.52;;;;;;;;;;5078085;28;20044;-67
2021/12/12 09:19:40;;;;;;;28.40;13.00;;;;;;;;;;5078776;28;20063;-67
2021/12/12 09:22:20;;;;;;;28.70;13.63;;;;;;;;;;5074257;28;20066;-67
2021/12/12 09:24:53;;;;;;;31.98;13.65;;;;;;;;;;5083146;28;20063;-67
2021/12/12 09:27:36;;;;;;;30.20;11.57;;;;;;;;;;5079982;28;20044;-67
2021/12/12 09:30:13;;;;;;;24.88;11.85;;;;;;;;;;5077564;28;20052;-67
2021/12/12 09:32:39;;;;;;;30.73;12.30;;;;;;;;;;5079006;28;20075;-67
2021/12/12 09:35:09;;;;;;;28.67;11.68;;;;;;;;;;5084283;28;20051;-68
2021/12/12 09:37:41;;;;;;;30.80;11.93;;;;;;;;;;5086170;28;20725;-67
2021/12/12 09:40:08;;;;;;;25.10;11.27;;;;;;;;;;5081419;28;20166;-68
2021/12/12 09:42:42;;;;;;;22.10;11.90;;;;;;;;;;5076885;28;20868;-67
2021/12/12 09:45:28;;;;;;;22.88;11.88;;;;;;;;;;5076915;28;20048;-67
2021/12/12 09:51:16;;;;;;;26.60;11.82;;;;;;;;;;5086421;28;20477;-67
2021/12/12 09:54:02;;;;;;;28.95;12.88;;;;;;;;;;5082307;28;20970;-67
2021/12/12 09:56:33;;;;;;;26.63;12.70;;;;;;;;;;5087613;28;20055;-67
2021/12/12 09:59:03;;;;;;;26.98;12.35;;;;;;;;;;5086744;28;20048;-68
2021/12/12 10:01:36;;;;;;;24.58;12.70;;;;;;;;;;5083842;28;20055;-67
2021/12/12 10:04:11;;;;;;;39.33;14.98;;;;;;;;;;5086096;28;20047;-67
2021/12/12 10:06:45;;;;;;;30.60;13.38;;;;;;;;;;5079908;28;20040;-68
2021/12/12 10:09:16;;;;;;;34.50;13.90;;;;;;;;;;5077879;28;20886;-68
2021/12/12 10:11:49;;;;;;;36.30;14.48;;;;;;;;;;5076795;28;20052;-67
2021/12/12 10:14:21;;;;;;;31.45;13.52;;;;;;;;;;5074979;28;20312;-68
2021/12/12 10:16:53;;;;;;;23.65;11.68;;;;;;;;;;5077263;28;20580;-68
2021/12/12 10:19:25;;;;;;;18.45;10.88;;;;;;;;;;5077478;28;20059;-68
2021/12/12 10:22:10;;;;;;;24.63;13.18;;;;;;;;;;5077344;28;20040;-68
2021/12/12 10:24:39;;;;;;;22.70;11.25;;;;;;;;;;5076824;28;20051;-67
2021/12/12 10:27:11;;;;;;;22.15;11.57;;;;;;;;;;5076767;28;20063;-68
2021/12/12 10:29:44;;;;;;;22.30;10.88;;;;;;;;;;5077358;28;20386;-68
2021/12/12 10:32:12;;;;;;;22.17;11.57;;;;;;;;;;5080850;28;20043;-68
2021/12/12 10:34:45;;;;;;;17.92;9.93;;;;;;;;;;5075929;28;20047;-68
2021/12/12 10:37:25;;;;;;;19.92;10.73;;;;;;;;;;5077762;28;20476;-67
2021/12/12 10:39:57;;;;;;;22.05;10.05;;;;;;;;;;5076049;28;20051;-68
2021/12/12 10:42:27;;;;;;;19.80;10.80;;;;;;;;;;5076846;28;20052;-67
2021/12/12 10:45:02;;;;;;;21.50;10.50;;;;;;;;;;5077128;28;20058;-68
2021/12/12 10:47:36;;;;;;;18.40;9.18;;;;;;;;;;5082757;28;20048;-66
2021/12/12 10:50:18;;;;;;;16.48;8.93;;;;;;;;;;5087319;28;20055;-66
2021/12/12 10:52:46;;;;;;;11.85;8.15;;;;;;;;;;5086283;28;20428;-66
2021/12/12 10:55:31;;;;;;;15.68;9.68;;;;;;;;;;5080775;28;20048;-66
2021/12/12 10:58:11;;;;;;;15.13;8.68;;;;;;;;;;5076293;28;20051;-66
2021/12/12 11:00:41;;;;;;;13.90;8.93;;;;;;;;;;5076628;28;20044;-68
2021/12/12 11:03:16;;;;;;;13.57;8.75;;;;;;;;;;5080896;28;20528;-68
2021/12/12 11:05:46;;;;;;;14.95;8.38;;;;;;;;;;5081225;28;20059;-67
2021/12/12 11:08:22;;;;;;;16.55;9.32;;;;;;;;;;5080806;28;20385;-67
2021/12/12 11:11:07;;;;;;;14.45;8.82;;;;;;;;;;5080311;28;20764;-67
2021/12/12 11:13:38;;;;;;;15.02;9.35;;;;;;;;;;5076494;28;20535;-68
2021/12/12 11:16:09;;;;;;;21.98;10.10;;;;;;;;;;5075302;28;20075;-67
2021/12/12 11:18:39;;;;;;;17.35;9.57;;;;;;;;;;5078225;28;20087;-66
2021/12/12 11:21:09;;;;;;;15.80;8.57;;;;;;;;;;5083800;28;20121;-67
2021/12/12 11:23:51;;;;;;;17.00;9.52;;;;;;;;;;5075015;28;20722;-67
2021/12/12 11:26:20;;;;;;;16.40;9.70;;;;;;;;;;5075981;28;20075;-67
2021/12/12 11:28:51;;;;;;;15.32;9.55;;;;;;;;;;5082937;28;20056;-66
2021/12/12 11:31:24;;;;;;;18.13;9.15;;;;;;;;;;5080302;28;20771;-67
2021/12/12 11:33:52;;;;;;;18.35;8.75;;;;;;;;;;5075730;28;20301;-66
2021/12/12 11:36:20;;;;;;;13.98;8.82;;;;;;;;;;5079863;28;20095;-67
2021/12/12 11:38:47;;;;;;;;;;;;;;;;;;5080284;28;20048;-67
2021/12/12 11:41:16;;;;;;;14.52;7.90;;;;;;;;;;5080035;28;20391;-67
2021/12/12 11:43:45;;;;;;;16.73;8.80;;;;;;;;;;5083996;28;20849;-67
2021/12/12 11:46:19;;;;;;;12.93;8.20;;;;;;;;;;5082528;28;20489;-67
2021/12/12 11:49:09;;;;;;;15.40;8.07;;;;;;;;;;5082011;28;20151;-67
2021/12/12 11:51:38;;;;;;;16.65;7.50;;;;;;;;;;5080060;28;20055;-67
2021/12/12 11:54:10;;;;;;;12.52;7.95;;;;;;;;;;5074350;28;20056;-67
2021/12/12 11:56:45;;;;;;;13.68;8.00;;;;;;;;;;5080691;28;20052;-67
2021/12/12 11:59:30;;;;;;;14.30;7.97;;;;;;;;;;5083617;28;20043;-67
2021/12/12 12:02:14;;;;;;;14.20;7.55;;;;;;;;;;5083322;28;20047;-67
2021/12/12 12:05:03;;;;;;;13.65;8.25;;;;;;;;;;5080200;28;20044;-67
2021/12/12 12:07:45;;;;;;;11.52;7.68;;;;;;;;;;5085786;28;20075;-67
2021/12/12 12:10:16;;;;;;;13.95;8.68;;;;;;;;;;5082826;28;20054;-67
2021/12/12 12:13:03;;;;;;;12.88;8.35;;;;;;;;;;5084785;28;20073;-67
2021/12/12 12:15:30;;;;;;;17.50;8.75;;;;;;;;;;5081796;28;20636;-67
2021/12/12 12:18:05;;;;;;;13.13;8.25;;;;;;;;;;5084665;28;20047;-67
2021/12/12 12:20:51;;;;;;;12.73;7.60;;;;;;;;;;5084779;28;20624;-66
2021/12/12 12:23:18;;;;;;;12.82;8.10;;;;;;;;;;5079377;28;20040;-67
2021/12/12 12:28:52;;;;;;;12.43;8.52;;;;;;;;;;5069927;28;20059;-67
2021/12/12 12:31:39;;;;;;;16.77;9.18;;;;;;;;;;5082968;28;20060;-67
2021/12/12 12:34:24;;;;;;;11.30;8.00;;;;;;;;;;5081486;28;20055;-67
2021/12/12 12:37:09;;;;;;;16.65;8.65;;;;;;;;;;5057298;28;20047;-66
2021/12/12 12:39:54;;;;;;;13.13;8.88;;;;;;;;;;5084793;28;20259;-67
2021/12/12 12:42:52;;;;;;;15.73;9.30;;;;;;;;;;5083182;28;20044;-68
2021/12/12 12:45:37;;;;;;;16.48;8.88;;;;;;;;;;5077594;28;20044;-67
2021/12/12 12:48:13;;;;;;;16.08;10.23;;;;;;;;;;5081974;28;20051;-66
2021/12/12 12:50:58;;;;;;;16.05;8.95;;;;;;;;;;5083538;28;20051;-67
2021/12/12 12:53:34;;;;;;;13.50;9.40;;;;;;;;;;5078293;28;20052;-66
2021/12/12 12:56:19;;;;;;;14.40;8.80;;;;;;;;;;5073045;28;20362;-66
2021/12/12 12:59:04;;;;;;;15.48;9.00;;;;;;;;;;5075790;28;20063;-67
2021/12/12 13:01:57;;;;;;;14.40;9.63;;;;;;;;;;5080749;28;20259;-66
2021/12/12 13:04:26;;;;;;;16.48;9.20;;;;;;;;;;5082844;28;20047;-66
2021/12/12 13:07:14;;;;;;;16.52;9.90;;;;;;;;;;5088061;28;20044;-67
2021/12/12 13:09:43;;;;;;;16.25;9.48;;;;;;;;;;5077797;28;20052;-67
2021/12/12 13:12:20;;;;;;;16.50;9.48;;;;;;;;;;5082200;28;20480;-66
2021/12/12 13:14:49;;;;;;;14.70;10.20;;;;;;;;;;5076860;28;20240;-67
2021/12/12 13:17:39;;;;;;;18.67;11.60;;;;;;;;;;5085219;28;20048;-66
2021/12/12 13:20:25;;;;;;;14.30;10.35;;;;;;;;;;5077317;28;20048;-66
2021/12/12 13:22:58;;;;;;;15.90;9.98;;;;;;;;;;5084192;28;20063;-66
2021/12/12 13:25:47;;;;;;;17.35;9.88;;;;;;;;;;5087487;28;20560;-66
2021/12/12 13:28:26;;;;;;;15.95;9.63;;;;;;;;;;5086649;28;20075;-66
2021/12/12 13:31:00;;;;;;;13.43;9.43;;;;;;;;;;5083684;28;20043;-67
2021/12/12 13:33:31;;;;;;;18.15;10.60;;;;;;;;;;5078089;28;20589;-67
2021/12/12 13:35:57;;;;;;;15.02;9.90;;;;;;;;;;5084500;28;20710;-67
2021/12/12 13:38:44;;;;;;;14.15;9.00;;;;;;;;;;5079747;28;20943;-68
2021/12/12 13:41:14;;;;;;;12.88;8.75;;;;;;;;;;5039472;28;20044;-68
2021/12/12 13:43:49;;;;;;;14.35;8.90;;;;;;;;;;5085977;28;20656;-67
2021/12/12 13:46:34;;;;;;;13.27;9.00;;;;;;;;;;5084426;28;20063;-67
2021/12/12 13:49:08;;;;;;;14.00;9.15;;;;;;;;;;5078682;28;20056;-68
2021/12/12 13:51:41;;;;;;;14.10;9.18;;;;;;;;;;5083945;28;20064;-68
2021/12/12 13:54:21;;;;;;;13.43;9.02;;;;;;;;;;5082526;28;20055;-68
2021/12/12 13:57:10;;;;;;;15.18;9.95;;;;;;;;;;5076987;28;20048;-68
2021/12/12 13:59:37;;;;;;;;;;;;;;;;;;5087996;28;20043;-69
2021/12/12 14:02:05;;;;;;;14.23;9.23;;;;;;;;;;5077292;28;19934;-66
2021/12/12 14:04:34;;;;;;;11.98;8.50;;;;;;;;;;5085054;28;20700;-66
2021/12/12 14:07:02;;;;;;;12.60;9.27;;;;;;;;;;5086489;28;20063;-67
2021/12/12 14:09:29;;;;;;;12.98;9.52;;;;;;;;;;5086385;28;20059;-67
2021/12/12 14:11:59;;;;;;;14.55;10.07;;;;;;;;;;5083183;28;20051;-66
2021/12/12 14:14:43;;;;;;;14.65;9.43;;;;;;;;;;5066908;28;20055;-67
2021/12/12 14:17:20;;;;;;;16.02;10.55;;;;;;;;;;5085262;28;20063;-67
2021/12/12 14:19:48;;;;;;;15.02;10.27;;;;;;;;;;5085279;28;20501;-67
2021/12/12 14:22:16;;;;;;;14.20;10.23;;;;;;;;;;5085150;28;20746;-66
2021/12/12 14:24:43;;;;;;;15.43;10.43;;;;;;;;;;5084676;28;20437;-67
2021/12/12 14:27:11;;;;;;;13.98;10.93;;;;;;;;;;5083532;28;20043;-67
2021/12/12 14:29:38;;;;;;;15.75;10.25;;;;;;;;;;5084091;28;20463;-67
2021/12/12 14:32:08;;;;;;;17.58;9.48;;;;;;;;;;5081475;28;20079;-67
2021/12/12 14:34:35;;;;;;;14.82;11.32;;;;;;;;;;5076795;28;20725;-67
2021/12/12 14:37:09;;;;;;;13.32;9.73;;;;;;;;;;5084415;28;20048;-66
2021/12/12 14:39:37;;;;;;;17.23;10.52;;;;;;;;;;5081977;28;20764;-66
2021/12/12 14:42:26;;;;;;;13.30;10.40;;;;;;;;;;5066643;28;20043;-66
2021/12/12 14:44:54;;;;;;;14.55;9.70;;;;;;;;;;5078052;28;20048;-66
2021/12/12 14:47:22;;;;;;;13.33;9.77;;;;;;;;;;5083909;28;20052;-66
2021/12/12 14:49:54;;;;;;;15.15;10.45;;;;;;;;;;5086400;28;20953;-66
2021/12/12 14:52:24;;;;;;;17.85;11.73;;;;;;;;;;5078939;28;20066;-66
2021/12/12 14:54:57;;;;;;;16.77;12.27;;;;;;;;;;5078073;28;20051;-66
2021/12/12 14:57:26;;;;;;;14.70;10.35;;;;;;;;;;5076711;28;20066;-66
2021/12/12 14:59:56;;;;;;;15.02;10.98;;;;;;;;;;5082095;28;20051;-66
2021/12/12 15:02:24;;;;;;;13.52;9.85;;;;;;;;;;5082724;28;20214;-66
2021/12/12 15:05:11;;;;;;;13.65;9.68;;;;;;;;;;5085906;28;20048;-66
2021/12/12 15:07:40;;;;;;;13.00;10.00;;;;;;;;;;5056417;28;20051;-66
2021/12/12 15:10:10;;;;;;;14.07;10.00;;;;;;;;;;5083260;28;20102;-66
2021/12/12 15:12:38;;;;;;;14.05;10.32;;;;;;;;;;5081784;28;20051;-66